createdAt,value
2022-10-02T00:02:06.181Z,3.10
2022-10-02T00:04:57.900Z,4.80
2022-10-02T00:07:38.763Z,6.40
2022-10-02T00:10:35.014Z,5.50
2022-10-02T00:13:09.128Z,3.50
2022-10-02T00:15:40.093Z,4.10
2022-10-02T00:18:14.523Z,3.40
2022-10-02T00:20:59.573Z,5.20
2022-10-02T00:23:44.757Z,4.50
2022-10-02T00:26:34.007Z,5.00
2022-10-02T00:29:32.726Z,4.00
2022-10-02T00:32:16.149Z,3.60
2022-10-02T00:35:17.399Z,3.00
2022-10-02T00:38:06.629Z,6.30
2022-10-02T00:40:39.149Z,5.10
2022-10-02T00:43:10.582Z,1.90
2022-10-02T00:45:48.025Z,3.20
2022-10-02T00:48:20.638Z,4.30
2022-10-02T00:51:24.394Z,4.60
2022-10-02T00:54:08.714Z,4.30
2022-10-02T00:56:38.516Z,5.20
2022-10-02T00:59:08.448Z,5.20
2022-10-02T01:01:54.051Z,5.90
2022-10-02T01:04:29.675Z,3.40
2022-10-02T01:06:57.370Z,4.70
2022-10-02T01:09:24.776Z,6.90
2022-10-02T01:11:52.221Z,7.50
2022-10-02T01:14:19.068Z,3.20
2022-10-02T01:16:46.385Z,4.90
2022-10-02T01:19:39.688Z,7.10
2022-10-02T01:22:24.289Z,9.40
2022-10-02T01:24:55.365Z,7.50
2022-10-02T01:27:23.816Z,4.70
2022-10-02T01:30:01.230Z,4.70
2022-10-02T01:32:28.777Z,4.60
2022-10-02T01:34:56.162Z,4.50
2022-10-02T01:37:28.848Z,6.20
2022-10-02T01:39:59.619Z,4.10
2022-10-02T01:42:26.292Z,5.00
2022-10-02T01:44:53.015Z,11.00
2022-10-02T01:47:32.425Z,6.00
2022-10-02T01:50:12.419Z,7.30
2022-10-02T01:53:11.078Z,3.60
2022-10-02T01:55:49.515Z,5.40
2022-10-02T01:58:42.019Z,6.70
2022-10-02T02:01:24.988Z,6.80
2022-10-02T02:04:10.470Z,5.60
2022-10-02T02:07:03.833Z,5.90
2022-10-02T02:09:42.491Z,6.20
2022-10-02T02:12:17.185Z,5.60
2022-10-02T02:15:08.118Z,6.00
2022-10-02T02:17:50.421Z,4.50
2022-10-02T02:20:30.515Z,7.90
2022-10-02T02:23:03.753Z,8.80
2022-10-02T02:25:33.447Z,11.20
2022-10-02T02:28:05.794Z,4.30
2022-10-02T02:30:36.114Z,8.20
2022-10-02T02:33:14.072Z,3.90
2022-10-02T02:35:45.280Z,7.60
2022-10-02T02:38:22.618Z,8.60
2022-10-02T02:40:51.382Z,4.00
2022-10-02T02:43:30.730Z,6.40
2022-10-02T02:46:08.909Z,7.50
2022-10-02T02:48:45.381Z,7.30
2022-10-02T02:51:43.197Z,6.20
2022-10-02T02:54:23.826Z,8.30
2022-10-02T02:56:52.468Z,8.80
2022-10-02T02:59:23.901Z,9.20
2022-10-02T03:01:50.727Z,6.60
2022-10-02T03:04:17.528Z,6.30
2022-10-02T03:06:47.244Z,6.60
2022-10-02T03:11:51.100Z,10.30
2022-10-02T03:14:35.937Z,5.80
2022-10-02T03:17:05.777Z,6.00
2022-10-02T03:19:47.415Z,5.50
2022-10-02T03:22:36.257Z,6.90
2022-10-02T03:25:14.535Z,6.60
2022-10-02T03:27:51.373Z,10.20
2022-10-02T03:30:21.493Z,6.70
2022-10-02T03:32:53.099Z,7.80
2022-10-02T03:35:22.185Z,6.00
2022-10-02T03:37:55.973Z,9.90
2022-10-02T03:40:23.988Z,3.80
2022-10-02T03:42:51.434Z,5.60
2022-10-02T03:45:39.032Z,5.50
2022-10-02T03:48:06.170Z,8.70
2022-10-02T03:50:36.236Z,8.50
2022-10-02T03:53:10.346Z,6.90
2022-10-02T03:55:54.831Z,8.90
2022-10-02T03:58:22.179Z,8.10
2022-10-02T04:00:57.961Z,7.60
2022-10-02T04:03:33.032Z,5.60
2022-10-02T04:06:12.926Z,6.20
2022-10-02T04:08:46.893Z,8.70
2022-10-02T04:11:42.709Z,8.30
2022-10-02T04:14:22.779Z,7.50
2022-10-02T04:17:02.415Z,5.60
2022-10-02T04:19:37.451Z,6.70
2022-10-02T04:22:35.366Z,8.20
2022-10-02T04:25:25.876Z,6.60
2022-10-02T04:27:55.539Z,7.60
2022-10-02T04:30:22.746Z,9.30
2022-10-02T04:32:50.134Z,6.60
2022-10-02T04:35:32.511Z,10.00
2022-10-02T04:38:42.627Z,10.40
2022-10-02T04:41:21.249Z,8.00
2022-10-02T04:44:22.614Z,8.60
2022-10-02T04:47:16.445Z,10.70
2022-10-02T04:50:07.255Z,10.10
2022-10-02T04:52:36.741Z,9.20
2022-10-02T04:55:12.616Z,11.10
2022-10-02T04:57:57.494Z,7.40
2022-10-02T05:00:25.962Z,8.70
2022-10-02T05:03:29.651Z,9.30
2022-10-02T05:06:27.260Z,11.10
2022-10-02T05:09:06.942Z,7.90
2022-10-02T05:11:55.249Z,8.80
2022-10-02T05:14:52.439Z,10.60
2022-10-02T05:17:55.307Z,11.70
2022-10-02T05:21:00.562Z,9.50
2022-10-02T05:23:48.500Z,9.20
2022-10-02T05:26:48.883Z,8.50
2022-10-02T05:29:24.680Z,7.20
2022-10-02T05:32:23.628Z,9.10
2022-10-02T05:35:12.383Z,7.20
2022-10-02T05:37:44.671Z,10.50
2022-10-02T05:40:17.392Z,11.90
2022-10-02T05:43:05.362Z,7.00
2022-10-02T05:45:43.692Z,7.80
2022-10-02T05:48:34.141Z,10.80
2022-10-02T05:51:30.014Z,9.80
2022-10-02T05:54:02.993Z,9.00
2022-10-02T05:56:39.659Z,5.60
2022-10-02T05:59:17.951Z,10.10
2022-10-02T06:01:48.889Z,9.20
2022-10-02T06:04:39.087Z,10.10
2022-10-02T06:07:12.924Z,8.50
2022-10-02T06:09:50.118Z,9.90
2022-10-02T06:12:26.113Z,9.90
2022-10-02T06:15:09.442Z,12.20
2022-10-02T06:17:43.414Z,8.00
2022-10-02T06:20:34.546Z,8.60
2022-10-02T06:23:06.896Z,10.70
2022-10-02T06:26:03.625Z,7.80
2022-10-02T06:28:39.038Z,7.50
2022-10-02T06:31:16.499Z,9.20
2022-10-02T06:33:43.992Z,6.40
2022-10-02T06:36:17.462Z,10.00
2022-10-02T06:39:11.887Z,10.70
2022-10-02T06:41:41.583Z,10.00
2022-10-02T06:44:22.594Z,9.00
2022-10-02T06:47:14.039Z,10.50
2022-10-02T06:49:53.061Z,7.60
2022-10-02T06:52:50.223Z,8.80
2022-10-02T06:55:38.592Z,9.40
2022-10-02T06:58:23.485Z,8.80
2022-10-02T07:00:58.489Z,10.00
2022-10-02T07:04:03.628Z,12.20
2022-10-02T07:06:33.376Z,8.90
2022-10-02T07:09:31.592Z,8.20
2022-10-02T07:12:35.777Z,7.20
2022-10-02T07:15:35.439Z,9.70
2022-10-02T07:18:29.424Z,9.40
2022-10-02T07:21:20.739Z,9.60
2022-10-02T07:24:02.546Z,7.60
2022-10-02T07:26:41.508Z,7.90
2022-10-02T07:29:26.827Z,7.50
2022-10-02T07:32:21.193Z,8.90
2022-10-02T07:35:24.736Z,6.90
2022-10-02T07:38:15.720Z,6.50
2022-10-02T07:40:46.675Z,8.40
2022-10-02T07:43:25.843Z,6.60
2022-10-02T07:46:09.723Z,6.10
2022-10-02T07:48:58.384Z,9.80
2022-10-02T07:51:51.563Z,7.00
2022-10-02T07:54:27.365Z,6.50
2022-10-02T07:56:59.070Z,6.30
2022-10-02T07:59:28.920Z,8.40
2022-10-02T08:04:36.140Z,7.50
2022-10-02T08:07:04.802Z,8.40
2022-10-02T08:09:37.615Z,8.00
2022-10-02T08:12:27.584Z,9.40
2022-10-02T08:17:27.701Z,11.50
2022-10-02T08:20:03.058Z,8.00
2022-10-02T08:22:45.679Z,6.90
2022-10-02T08:25:12.327Z,7.20
2022-10-02T08:28:10.695Z,11.20
2022-10-02T08:30:37.770Z,7.70
2022-10-02T08:33:23.538Z,7.00
2022-10-02T08:36:19.338Z,10.70
2022-10-02T08:38:53.831Z,9.60
2022-10-02T08:42:03.694Z,7.20
2022-10-02T08:44:54.836Z,8.20
2022-10-02T08:47:42.955Z,5.90
2022-10-02T08:50:29.581Z,6.70
2022-10-02T08:53:08.494Z,10.60
2022-10-02T08:56:02.725Z,4.50
2022-10-02T08:58:53.083Z,6.90
2022-10-02T09:01:45.945Z,5.20
2022-10-02T09:04:48.820Z,6.60
2022-10-02T09:07:15.556Z,5.10
2022-10-02T09:10:25.318Z,4.70
2022-10-02T09:13:25.544Z,6.70
2022-10-02T09:16:07.552Z,5.70
2022-10-02T09:19:01.032Z,6.80
2022-10-02T09:21:49.900Z,5.30
2022-10-02T09:24:42.705Z,4.00
2022-10-02T09:27:34.003Z,5.20
2022-10-02T09:30:11.582Z,5.60
2022-10-02T09:32:57.083Z,7.20
2022-10-02T09:35:54.389Z,6.40
2022-10-02T09:38:44.240Z,6.10
2022-10-02T09:41:42.520Z,7.00
2022-10-02T09:45:01.217Z,7.60
2022-10-02T09:48:10.382Z,7.70
2022-10-02T09:51:05.175Z,7.00
2022-10-02T09:53:32.025Z,5.30
2022-10-02T09:55:58.660Z,7.00
2022-10-02T09:58:43.933Z,4.50
2022-10-02T10:01:34.354Z,6.40
2022-10-02T10:04:22.189Z,3.50
2022-10-02T10:07:10.581Z,7.30
2022-10-02T10:10:07.759Z,4.30
2022-10-02T10:12:45.872Z,6.80
2022-10-02T10:15:41.992Z,5.40
2022-10-02T10:18:31.399Z,5.70
2022-10-02T10:21:16.425Z,5.90
2022-10-02T10:24:30.780Z,5.70
2022-10-02T10:27:29.561Z,3.10
2022-10-02T10:30:14.701Z,3.60
2022-10-02T10:33:08.544Z,3.30
2022-10-02T10:35:55.532Z,5.10
2022-10-02T10:39:00.674Z,7.60
2022-10-02T10:42:20.271Z,4.40
2022-10-02T10:45:05.777Z,4.40
2022-10-02T10:48:04.959Z,5.30
2022-10-02T10:50:48.484Z,7.70
2022-10-02T10:53:41.898Z,4.00
2022-10-02T10:56:29.423Z,6.10
2022-10-02T11:01:55.001Z,10.60
2022-10-02T11:09:45.105Z,5.60
2022-10-02T11:12:33.836Z,4.60
2022-10-02T11:15:25.364Z,7.90
2022-10-02T11:18:16.672Z,5.70
2022-10-02T11:24:47.669Z,4.80
2022-10-02T11:27:37.756Z,3.70
2022-10-02T11:34:17.987Z,4.80
2022-10-02T11:37:19.121Z,5.10
2022-10-02T11:44:26.771Z,4.20
2022-10-02T11:47:23.021Z,7.00
2022-10-02T11:54:16.791Z,4.40
2022-10-02T11:56:36.761Z,5.30
2022-10-02T11:57:47.630Z,7.90
2022-10-02T12:00:49.881Z,6.10
2022-10-02T12:04:26.216Z,7.30
2022-10-02T12:37:41.159Z,2.70
2022-10-02T12:40:53.716Z,3.70
2022-10-02T12:44:09.825Z,3.70
2022-10-02T12:58:08.501Z,4.50
2022-10-02T13:01:12.053Z,1.90
2022-10-02T13:04:03.928Z,3.40
2022-10-02T13:06:40.783Z,2.30
2022-10-02T13:09:33.167Z,2.50
2022-10-02T13:12:36.683Z,3.50
2022-10-02T13:15:09.604Z,3.70
2022-10-02T13:17:58.226Z,1.80
2022-10-02T13:21:06.411Z,3.30
2022-10-02T13:24:05.394Z,2.50
2022-10-02T13:27:44.297Z,2.70
2022-10-02T13:30:51.584Z,3.60
2022-10-02T13:34:06.357Z,1.60
2022-10-02T13:43:38.884Z,1.60
2022-10-02T13:46:05.884Z,3.10
2022-10-02T13:49:19.203Z,2.30
2022-10-02T13:52:23.566Z,3.00
2022-10-02T13:55:17.374Z,1.60
2022-10-02T13:58:34.162Z,2.80
2022-10-02T14:01:18.573Z,3.90
2022-10-02T14:04:19.892Z,3.80
2022-10-02T14:07:06.620Z,3.90
2022-10-02T14:09:51.990Z,4.10
2022-10-02T14:12:31.307Z,2.30
2022-10-02T14:16:05.905Z,4.40
2022-10-02T14:19:14.319Z,1.50
2022-10-02T14:45:15.969Z,2.80
2022-10-02T14:52:30.883Z,3.40
2022-10-02T15:23:00.550Z,5.00
2022-10-02T15:26:47.150Z,3.20
2022-10-02T15:29:33.830Z,2.00
2022-10-02T16:03:18.642Z,6.40
2022-10-02T16:13:08.614Z,5.30
2022-10-02T16:20:20.516Z,6.00
2022-10-02T16:23:00.434Z,4.90
2022-10-02T16:25:58.172Z,8.70
2022-10-02T16:28:38.013Z,6.50
2022-10-02T16:31:39.539Z,5.10
2022-10-02T16:34:41.334Z,5.30
2022-10-02T17:05:29.373Z,5.10
2022-10-02T17:08:06.047Z,7.20
2022-10-02T17:11:03.162Z,5.70
2022-10-02T17:14:19.943Z,5.70
2022-10-02T17:40:46.946Z,8.40
2022-10-02T17:57:48.318Z,9.10
2022-10-02T18:00:22.471Z,7.70
2022-10-02T18:03:10.508Z,6.90
2022-10-02T18:05:43.450Z,6.00
2022-10-02T18:09:05.195Z,6.80
2022-10-02T18:11:41.197Z,6.30
2022-10-02T18:14:49.994Z,7.00
2022-10-02T18:18:14.557Z,6.30
2022-10-02T18:25:57.340Z,4.90
2022-10-02T18:29:21.128Z,7.40
2022-10-02T18:40:56.906Z,4.30
2022-10-02T18:44:11.453Z,6.00
2022-10-02T18:46:58.852Z,3.70
2022-10-02T18:49:52.256Z,3.10
2022-10-02T18:52:50.677Z,2.60
2022-10-02T18:59:18.415Z,2.40
2022-10-02T19:01:56.908Z,3.20
2022-10-02T19:05:10.523Z,6.50
2022-10-02T19:07:48.481Z,3.90
2022-10-02T19:10:49.539Z,2.70
2022-10-02T19:13:30.592Z,2.90
2022-10-02T19:16:04.844Z,3.50
2022-10-02T19:18:39.660Z,2.90
2022-10-02T19:21:14.096Z,3.60
2022-10-02T19:24:30.182Z,6.30
2022-10-02T19:27:01.933Z,3.30
2022-10-02T19:29:55.440Z,6.40
2022-10-02T19:32:50.461Z,4.10
2022-10-02T19:38:39.014Z,5.00
2022-10-02T19:41:35.286Z,4.10
2022-10-02T19:44:44.441Z,3.90
2022-10-02T19:47:30.142Z,3.10
2022-10-02T19:50:00.096Z,2.00
2022-10-02T19:52:46.166Z,2.60
2022-10-02T19:55:29.084Z,2.30
2022-10-02T19:58:24.577Z,1.60
2022-10-02T20:00:53.165Z,2.70
2022-10-02T20:03:23.480Z,2.40
2022-10-02T20:06:13.616Z,3.40
2022-10-02T20:08:45.711Z,3.60
2022-10-02T20:11:26.177Z,3.20
2022-10-02T20:14:00.355Z,2.60
2022-10-02T20:16:45.895Z,2.80
2022-10-02T20:19:29.896Z,3.80
2022-10-02T20:22:25.963Z,7.00
2022-10-02T20:25:18.686Z,3.50
2022-10-02T21:33:35.402Z,5.30
2022-10-02T21:36:33.388Z,4.90
2022-10-02T21:40:54.529Z,7.20
2022-10-02T21:43:52.407Z,5.20
2022-10-02T21:47:01.423Z,2.70
2022-10-02T21:54:24.567Z,2.50
2022-10-02T21:56:53.806Z,5.40
2022-10-02T22:04:08.744Z,5.80
2022-10-02T22:06:36.113Z,4.10
2022-10-02T22:09:21.328Z,8.90
2022-10-02T22:12:13.920Z,5.90
2022-10-02T22:15:03.829Z,3.50
2022-10-02T22:17:48.213Z,2.80
2022-10-02T22:20:17.578Z,4.60
2022-10-02T22:22:56.323Z,7.50
2022-10-02T22:25:49.890Z,5.60
2022-10-02T22:28:35.098Z,5.10
2022-10-02T22:31:13.868Z,3.80
2022-10-02T22:33:54.520Z,4.70
2022-10-02T22:36:39.917Z,3.70
2022-10-02T22:39:25.087Z,3.70
2022-10-02T22:42:19.564Z,3.40
2022-10-02T22:45:05.208Z,8.20
2022-10-02T22:47:59.961Z,3.40
2022-10-02T22:50:35.788Z,4.40
2022-10-02T22:53:24.550Z,4.60
2022-10-02T22:55:56.594Z,6.10
2022-10-02T22:58:42.013Z,4.20
2022-10-02T23:01:23.586Z,4.40
2022-10-02T23:03:53.507Z,2.10
2022-10-02T23:06:40.295Z,8.00
2022-10-02T23:09:57.153Z,5.20
2022-10-02T23:12:40.098Z,7.10
2022-10-02T23:15:30.998Z,3.90
2022-10-02T23:18:39.090Z,8.70
2022-10-02T23:21:21.736Z,6.40
2022-10-02T23:24:16.020Z,6.50
2022-10-02T23:26:55.051Z,6.20
2022-10-02T23:29:59.801Z,7.70
2022-10-02T23:32:54.448Z,6.70
2022-10-02T23:35:56.235Z,6.50
2022-10-02T23:38:35.013Z,6.60
2022-10-02T23:41:25.833Z,7.70
2022-10-02T23:44:01.482Z,5.10
2022-10-02T23:46:35.833Z,6.70
2022-10-02T23:49:03.173Z,6.10
2022-10-02T23:52:02.928Z,11.10
2022-10-02T23:55:01.685Z,5.50
2022-10-02T23:57:40.616Z,8.50
